PADK/ADK METAR and TAF weather

Enter ICAO airport designator
Station Type Date Time Source
PADK METAR 2024/04/18 07:56 UTC NOAA

PADK 180756Z AUTO 33011KT 10SM OVC035 01/M05 A3041 RMK AO2 SLP298 T00111050 400221006 FZRANO $


Station Type Date Time Source
PADK Decoded METAR 2024/04/18 07:56 UTC NOAA

Adak Island, Adak Airport, AK, United States (PADK) 51-52-40N 176-38-45W 4M
Apr 18, 2024 - 03:56 AM EDT / 2024.04.18 0756 UTC
Wind: from the NNW (330 degrees) at 13 MPH (11 KT):0
Visibility: 10 mile(s):0
Sky conditions: overcast
Temperature: 34.0 F (1.1 C)
Windchill: 24 F (-4 C):1
Dew Point: 23.0 F (-5.0 C)
Relative Humidity: 63%
Pressure (altimeter): 30.41 in. Hg (1029 hPa)
ob: PADK 180756Z AUTO 33011KT 10SM OVC035 01/M05 A3041 RMK AO2 SLP298 T00111050 400221006 FZRANO
cycle: 8

Station Type Date Time Source
PADK TAF 2007/04/07 12:54 UTC NOAA